Time;durP1;ratioP1;P1;durP2;ratioP2;P2;SDS_P1;SDS_P2;PMS_P1;PMS_P2;Temp;Humidity;BMP_temperature;BMP_pressure;BME280_temperature;BME280_humidity;BME280_pressure;Samples;Min_cycle;Max_cycle;Signal;HPM_P1;HPM_P2
2022/07/25 00:00:53;;;;;;;6.78;6.18;;;24.80;74.00;;;;;;5009237;28;20188;-70
2022/07/25 00:03:18;;;;;;;6.35;5.88;;;24.90;74.10;;;;;;5009822;28;20271;-71
2022/07/25 00:05:44;;;;;;;6.80;6.30;;;24.90;74.20;;;;;;5009711;28;20212;-70
2022/07/25 00:08:11;;;;;;;6.53;6.13;;;24.80;74.10;;;;;;4993441;28;20239;-70
2022/07/25 00:10:36;;;;;;;6.72;6.13;;;24.80;74.00;;;;;;5009130;28;20231;-70
2022/07/25 00:13:02;;;;;;;6.00;5.60;;;24.90;74.10;;;;;;4993550;28;20189;-71
2022/07/25 00:15:29;;;;;;;6.40;5.95;;;24.80;74.10;;;;;;5009472;28;20704;-69
2022/07/25 00:17:54;;;;;;;6.13;5.63;;;24.80;74.00;;;;;;5009640;28;20189;-70
2022/07/25 00:20:20;;;;;;;6.45;5.97;;;24.90;74.10;;;;;;5009205;28;20185;-70
2022/07/25 00:22:46;;;;;;;6.40;5.97;;;24.90;74.10;;;;;;5009877;28;20177;-70
2022/07/25 00:25:12;;;;;;;6.30;5.80;;;24.90;74.20;;;;;;5009440;28;20196;-70
2022/07/25 00:27:38;;;;;;;6.38;5.88;;;24.80;74.80;;;;;;4993317;28;20185;-70
2022/07/25 00:30:04;;;;;;;6.40;5.90;;;24.80;74.00;;;;;;4992569;28;20243;-69
2022/07/25 00:32:30;;;;;;;6.10;5.70;;;24.80;74.10;;;;;;5009143;28;20223;-70
2022/07/25 00:34:56;;;;;;;6.25;5.82;;;24.80;74.00;;;;;;5009434;28;20280;-71
2022/07/25 00:37:22;;;;;;;6.47;6.00;;;24.80;74.10;;;;;;5009138;28;20287;-70
2022/07/25 00:39:47;;;;;;;6.53;6.03;;;24.80;74.10;;;;;;4992317;28;20176;-69
2022/07/25 00:42:13;;;;;;;6.38;5.88;;;24.80;74.10;;;;;;4976629;28;20336;-71
2022/07/25 00:44:39;;;;;;;6.68;6.07;;;24.80;74.10;;;;;;5009030;28;20185;-70
2022/07/25 00:47:05;;;;;;;6.28;5.78;;;24.80;74.10;;;;;;4992424;28;20212;-70
2022/07/25 00:49:31;;;;;;;6.32;5.82;;;24.80;74.20;;;;;;5008526;28;20185;-70
2022/07/25 00:51:58;;;;;;;6.72;6.13;;;24.80;74.00;;;;;;4992922;28;20216;-70
2022/07/25 00:54:24;;;;;;;6.20;5.63;;;24.80;74.10;;;;;;4992966;28;20191;-70
2022/07/25 00:56:50;;;;;;;6.28;5.70;;;24.80;74.00;;;;;;4975771;28;20613;-70
2022/07/25 00:59:17;;;;;;;6.82;6.30;;;24.80;74.10;;;;;;4992208;28;20180;-69
2022/07/25 01:01:46;;;;;;;6.70;6.13;;;24.80;73.90;;;;;;5008798;28;20251;-70
2022/07/25 01:04:13;;;;;;;6.15;5.65;;;24.80;74.00;;;;;;5009048;28;20239;-69
2022/07/25 01:06:39;;;;;;;6.13;5.63;;;24.80;74.00;;;;;;4992524;28;20578;-70
2022/07/25 01:09:06;;;;;;;5.72;5.32;;;24.80;73.90;;;;;;5008103;28;20200;-69
2022/07/25 01:11:32;;;;;;;6.60;6.10;;;24.80;74.00;;;;;;5008858;28;20212;-70
2022/07/25 01:13:58;;;;;;;6.78;6.28;;;24.80;74.00;;;;;;4992439;28;20185;-70
2022/07/25 01:16:24;;;;;;;6.20;5.70;;;24.80;73.90;;;;;;4992143;28;20219;-70
2022/07/25 01:18:49;;;;;;;6.72;6.22;;;24.80;74.10;;;;;;4991647;28;20617;-69
2022/07/25 01:21:15;;;;;;;6.18;5.68;;;24.80;73.90;;;;;;4992479;28;20184;-70
2022/07/25 01:23:41;;;;;;;6.10;5.60;;;24.80;74.00;;;;;;4992163;28;20277;-70
2022/07/25 01:26:07;;;;;;;6.50;6.00;;;24.80;74.10;;;;;;5008303;28;20673;-70
2022/07/25 01:28:33;;;;;;;6.22;5.72;;;24.80;74.00;;;;;;5008613;28;20284;-70
2022/07/25 01:30:59;;;;;;;6.40;5.90;;;24.80;74.00;;;;;;5007927;28;20260;-71
2022/07/25 01:33:25;;;;;;;6.40;5.90;;;24.80;74.00;;;;;;4991980;28;20177;-70
2022/07/25 01:35:51;;;;;;;6.82;6.32;;;24.80;74.00;;;;;;4991828;28;20200;-70
2022/07/25 01:38:17;;;;;;;6.50;6.00;;;24.80;74.00;;;;;;4975680;28;20181;-70
2022/07/25 01:40:43;;;;;;;6.03;5.63;;;24.80;74.00;;;;;;5007661;28;20185;-70
2022/07/25 01:43:10;;;;;;;6.80;6.20;;;24.80;74.00;;;;;;4975731;28;20174;-70
2022/07/25 01:45:36;;;;;;;6.57;6.07;;;24.80;73.90;;;;;;5008118;28;20209;-69
2022/07/25 01:48:02;;;;;;;6.65;6.05;;;24.80;74.00;;;;;;5007931;28;20196;-70
2022/07/25 01:50:28;;;;;;;6.05;5.50;;;24.80;73.90;;;;;;5007393;28;20195;-71
2022/07/25 01:52:54;;;;;;;6.30;5.80;;;24.80;73.90;;;;;;5008082;28;20220;-71
2022/07/25 01:55:20;;;;;;;6.60;6.10;;;24.80;73.90;;;;;;4990964;28;20224;-71
2022/07/25 01:57:46;;;;;;;6.13;5.68;;;24.70;73.70;;;;;;5006796;28;20196;-71
2022/07/25 02:00:14;;;;;;;6.18;5.72;;;24.70;73.70;;;;;;5006830;28;20268;-70
2022/07/25 02:02:44;;;;;;;6.15;5.65;;;24.80;73.90;;;;;;5007512;28;20230;-71
2022/07/25 02:05:13;;;;;;;5.90;5.50;;;24.70;73.70;;;;;;5007311;28;20609;-70
2022/07/25 02:07:39;;;;;;;6.15;5.65;;;24.80;73.90;;;;;;5007043;28;20188;-70
2022/07/25 02:10:07;;;;;;;5.82;5.43;;;24.80;74.70;;;;;;5008894;28;20180;-70
2022/07/25 02:12:33;;;;;;;6.40;5.88;;;24.80;73.90;;;;;;4994427;28;20303;-71
2022/07/25 02:14:59;;;;;;;6.45;5.90;;;24.70;73.70;;;;;;5010767;28;20192;-70
2022/07/25 02:17:25;;;;;;;6.72;6.15;;;24.70;73.80;;;;;;5010630;28;20208;-70
2022/07/25 02:19:51;;;;;;;6.10;5.60;;;24.70;73.80;;;;;;4993681;28;20275;-70
2022/07/25 02:22:17;;;;;;;6.97;6.38;;;24.80;73.90;;;;;;5010442;28;20328;-70
2022/07/25 02:24:43;;;;;;;6.20;5.70;;;24.70;73.80;;;;;;5010416;28;20195;-70
2022/07/25 02:27:09;;;;;;;6.50;6.00;;;24.70;73.80;;;;;;4994241;28;20259;-70
2022/07/25 02:29:35;;;;;;;6.45;5.95;;;24.70;73.70;;;;;;5010165;28;20185;-70
2022/07/25 02:32:01;;;;;;;6.90;6.40;;;24.70;73.70;;;;;;5010467;28;20224;-70
2022/07/25 02:34:27;;;;;;;5.90;5.50;;;24.70;73.70;;;;;;5010476;28;20193;-70
2022/07/25 02:36:52;;;;;;;6.32;5.82;;;24.70;73.70;;;;;;4993641;28;20681;-70
2022/07/25 02:39:18;;;;;;;6.15;5.65;;;24.70;73.80;;;;;;5009780;28;20188;-71
2022/07/25 02:41:44;;;;;;;6.53;6.03;;;24.70;73.80;;;;;;5010109;28;20193;-70
2022/07/25 02:44:10;;;;;;;6.60;6.10;;;24.70;73.70;;;;;;5010012;28;20192;-70
2022/07/25 02:46:36;;;;;;;6.47;5.97;;;24.70;73.70;;;;;;5010222;28;20259;-70
2022/07/25 02:49:02;;;;;;;6.10;5.60;;;24.70;73.80;;;;;;5003068;28;20574;-71
2022/07/25 02:51:27;;;;;;;6.35;5.80;;;24.70;73.70;;;;;;5005638;28;20219;-70
2022/07/25 02:53:53;;;;;;;6.43;5.93;;;24.70;73.70;;;;;;5009993;28;20622;-70
2022/07/25 02:56:19;;;;;;;6.53;6.03;;;24.70;73.70;;;;;;4952883;28;1196246;-70
2022/07/25 02:58:45;;;;;;;5.97;5.55;;;24.70;73.80;;;;;;5011269;28;20177;-70
2022/07/25 03:01:11;;;;;;;6.45;5.95;;;24.70;73.80;;;;;;4994096;28;20548;-70
2022/07/25 03:03:37;;;;;;;6.80;6.30;;;24.70;73.70;;;;;;4995030;28;20276;-71
2022/07/25 03:06:04;;;;;;;6.50;6.00;;;24.70;73.80;;;;;;4978250;28;20208;-70
2022/07/25 03:08:29;;;;;;;6.75;6.25;;;24.70;73.70;;;;;;5010903;28;20610;-70
2022/07/25 03:10:55;;;;;;;6.60;6.10;;;24.70;73.80;;;;;;5010184;28;20192;-69
2022/07/25 03:13:21;;;;;;;6.53;6.03;;;24.70;73.90;;;;;;5010846;28;20200;-70
2022/07/25 03:15:47;;;;;;;6.85;6.35;;;24.70;73.80;;;;;;5010983;28;20212;-70
2022/07/25 03:18:12;;;;;;;6.60;6.10;;;24.70;73.80;;;;;;4994469;28;20185;-70
2022/07/25 03:20:38;;;;;;;6.90;6.30;;;24.70;73.80;;;;;;5010157;28;20187;-70
2022/07/25 03:23:04;;;;;;;6.90;6.40;;;24.70;73.80;;;;;;5010695;28;20185;-69
2022/07/25 03:25:30;;;;;;;6.00;5.60;;;24.70;73.80;;;;;;5010886;28;20351;-70
2022/07/25 03:27:56;;;;;;;6.50;6.00;;;24.70;73.80;;;;;;5010645;28;20200;-70
2022/07/25 03:30:21;;;;;;;6.53;6.03;;;24.60;73.60;;;;;;4993629;28;20242;-70
2022/07/25 03:32:48;;;;;;;6.05;5.65;;;24.70;73.80;;;;;;5010400;28;20200;-70
2022/07/25 03:35:14;;;;;;;6.55;6.05;;;24.70;73.70;;;;;;5010682;28;20189;-70
2022/07/25 03:37:41;;;;;;;7.35;6.57;;;24.70;73.70;;;;;;5010618;28;20193;-70
2022/07/25 03:40:08;;;;;;;6.15;5.65;;;24.60;73.60;;;;;;5009958;28;20196;-70
2022/07/25 03:42:33;;;;;;;6.20;5.70;;;24.60;73.60;;;;;;5010342;28;20192;-70
2022/07/25 03:44:59;;;;;;;6.43;5.93;;;24.60;73.60;;;;;;5010251;28;20195;-70
2022/07/25 03:47:25;;;;;;;6.00;5.60;;;24.60;73.60;;;;;;5009843;28;20232;-70
2022/07/25 03:49:51;;;;;;;6.75;6.20;;;24.60;73.50;;;;;;4993412;28;20216;-70
2022/07/25 03:52:17;;;;;;;6.38;5.90;;;24.60;73.60;;;;;;5010280;28;20263;-70
2022/07/25 03:54:42;;;;;;;6.45;5.95;;;24.60;73.60;;;;;;4993810;28;20217;-70
2022/07/25 03:57:10;;;;;;;6.57;6.07;;;24.70;73.70;;;;;;4993793;28;20212;-70
2022/07/25 03:59:36;;;;;;;5.70;5.30;;;24.60;73.60;;;;;;5009699;28;20197;-70
2022/07/25 04:02:01;;;;;;;6.05;5.60;;;24.60;73.60;;;;;;5010304;28;20216;-70
2022/07/25 04:04:27;;;;;;;7.28;6.57;;;24.60;73.60;;;;;;5009817;28;20233;-70
2022/07/25 04:06:53;;;;;;;6.70;6.20;;;24.60;73.60;;;;;;5010122;28;20208;-70
2022/07/25 04:09:19;;;;;;;6.57;6.07;;;24.60;73.60;;;;;;5009225;28;20205;-70
2022/07/25 04:11:44;;;;;;;6.70;6.13;;;24.60;73.70;;;;;;5009949;28;20239;-70
2022/07/25 04:14:10;;;;;;;6.47;5.95;;;24.60;73.70;;;;;;5009743;28;20177;-70
2022/07/25 04:16:36;;;;;;;6.53;6.03;;;24.60;73.60;;;;;;5009417;28;20197;-70
2022/07/25 04:19:03;;;;;;;6.15;5.65;;;24.60;73.70;;;;;;5009570;28;20188;-69
2022/07/25 04:21:29;;;;;;;6.75;6.25;;;24.60;73.60;;;;;;4993082;28;20193;-69
2022/07/25 04:23:55;;;;;;;6.35;5.85;;;24.60;73.60;;;;;;4993483;28;20673;-69
2022/07/25 04:26:21;;;;;;;6.55;6.05;;;24.60;73.70;;;;;;5009788;28;20208;-69
2022/07/25 04:28:47;;;;;;;6.53;6.03;;;24.60;74.40;;;;;;4993041;28;20193;-70
2022/07/25 04:31:13;;;;;;;6.90;6.30;;;24.60;73.60;;;;;;5008243;28;20205;-69
2022/07/25 04:33:40;;;;;;;6.68;6.07;;;24.60;73.50;;;;;;5008661;28;20185;-69
2022/07/25 04:36:06;;;;;;;6.30;5.80;;;24.60;73.50;;;;;;5009012;28;20193;-69
2022/07/25 04:38:33;;;;;;;6.90;6.32;;;24.60;73.40;;;;;;5009111;28;20196;-69
2022/07/25 04:40:59;;;;;;;6.97;6.47;;;24.60;73.40;;;;;;4992359;28;20200;-68
2022/07/25 04:43:25;;;;;;;7.07;6.47;;;24.60;73.40;;;;;;5009334;28;20542;-69
2022/07/25 04:45:51;;;;;;;6.82;6.32;;;24.60;73.40;;;;;;4992703;28;20263;-70
2022/07/25 04:48:16;;;;;;;6.65;6.15;;;24.60;73.40;;;;;;5008803;28;20557;-70
2022/07/25 04:50:43;;;;;;;6.90;6.40;;;24.60;73.30;;;;;;4992084;28;20189;-70
2022/07/25 04:53:08;;;;;;;6.93;6.28;;;24.60;73.40;;;;;;5008901;28;20225;-70
2022/07/25 04:55:35;;;;;;;6.72;6.22;;;24.60;73.40;;;;;;5008815;28;20224;-70
2022/07/25 04:58:01;;;;;;;6.82;6.32;;;24.60;73.40;;;;;;5009154;28;20208;-70
2022/07/25 05:00:27;;;;;;;7.45;6.85;;;24.60;73.30;;;;;;4991943;28;20207;-70
2022/07/25 05:02:53;;;;;;;6.63;6.13;;;24.60;73.30;;;;;;5008705;28;20208;-69
2022/07/25 05:05:20;;;;;;;6.50;6.07;;;24.60;73.30;;;;;;5008791;28;20677;-69
2022/07/25 05:07:46;;;;;;;7.20;6.70;;;24.60;73.20;;;;;;5008622;28;20193;-69
2022/07/25 05:10:12;;;;;;;7.25;6.65;;;24.50;73.10;;;;;;5008256;28;20187;-70
2022/07/25 05:12:38;;;;;;;7.18;6.65;;;24.60;73.20;;;;;;5008868;28;20212;-70
2022/07/25 05:15:05;;;;;;;7.13;6.63;;;24.50;73.00;;;;;;5008456;28;20195;-70
2022/07/25 05:17:31;;;;;;;7.47;6.88;;;24.50;73.00;;;;;;5007149;28;20676;-70
2022/07/25 05:19:57;;;;;;;7.50;6.90;;;24.50;73.00;;;;;;4990393;28;20177;-71
2022/07/25 05:22:24;;;;;;;6.72;6.22;;;24.50;73.00;;;;;;5006931;28;20193;-70
2022/07/25 05:24:50;;;;;;;6.95;6.38;;;24.50;73.00;;;;;;5007062;28;20199;-70
2022/07/25 05:27:15;;;;;;;7.25;6.65;;;24.60;73.20;;;;;;5006494;28;20213;-70
2022/07/25 05:29:41;;;;;;;7.13;6.55;;;24.50;73.00;;;;;;4990131;28;20192;-71
2022/07/25 05:32:07;;;;;;;6.45;6.03;;;24.50;73.00;;;;;;5007730;28;20235;-71
2022/07/25 05:34:33;;;;;;;7.38;6.75;;;24.50;73.00;;;;;;5007636;28;20185;-71
2022/07/25 05:36:59;;;;;;;7.22;6.63;;;24.50;73.00;;;;;;4991330;28;20201;-70
2022/07/25 05:39:25;;;;;;;7.15;6.55;;;24.50;73.10;;;;;;5007209;28;20227;-71
2022/07/25 05:41:51;;;;;;;7.10;6.60;;;24.50;73.30;;;;;;5007847;28;20557;-70
2022/07/25 05:44:17;;;;;;;7.28;6.68;;;24.50;73.30;;;;;;4975056;28;20226;-70
2022/07/25 05:46:42;;;;;;;6.95;6.45;;;24.50;73.30;;;;;;5007286;28;20217;-69
2022/07/25 05:49:08;;;;;;;7.63;7.00;;;24.50;73.40;;;;;;5007574;28;20291;-70
2022/07/25 05:51:34;;;;;;;6.95;6.35;;;24.50;73.40;;;;;;4990768;28;20235;-70
2022/07/25 05:54:00;;;;;;;7.70;7.05;;;24.50;73.50;;;;;;5007325;28;20188;-71
2022/07/25 05:56:26;;;;;;;8.07;7.47;;;24.50;73.60;;;;;;4974960;28;20224;-70
2022/07/25 05:58:52;;;;;;;7.35;6.80;;;24.50;73.60;;;;;;4974861;28;20180;-70
2022/07/25 06:01:18;;;;;;;7.38;6.78;;;24.50;73.70;;;;;;4990620;28;20223;-70
2022/07/25 06:03:43;;;;;;;7.65;7.05;;;24.50;73.70;;;;;;4974499;28;20573;-70
2022/07/25 06:06:10;;;;;;;7.40;6.75;;;24.50;74.50;;;;;;4991259;28;20212;-70
2022/07/25 06:08:39;;;;;;;7.18;6.57;;;24.50;73.80;;;;;;4974220;28;20193;-71
2022/07/25 06:11:06;;;;;;;7.57;6.88;;;24.50;74.60;;;;;;4990678;28;20188;-71
2022/07/25 06:13:33;;;;;;;7.93;7.22;;;24.50;74.00;;;;;;4990990;28;20181;-70
2022/07/25 06:16:00;;;;;;;7.35;6.75;;;24.50;74.10;;;;;;5007251;28;20204;-71
2022/07/25 06:18:26;;;;;;;7.43;6.82;;;24.50;74.30;;;;;;4991047;28;20189;-71
2022/07/25 06:20:52;;;;;;;8.15;7.53;;;24.50;74.40;;;;;;4990441;28;20185;-70
2022/07/25 06:23:19;;;;;;;7.90;7.30;;;24.50;74.40;;;;;;4990664;28;20213;-71
2022/07/25 06:25:46;;;;;;;7.72;7.13;;;24.50;74.40;;;;;;5007227;28;20204;-71
2022/07/25 06:28:13;;;;;;;7.97;7.20;;;24.50;74.10;;;;;;5006964;28;20184;-70
2022/07/25 06:30:45;;;;;;;8.05;7.35;;;24.50;74.30;;;;;;5006857;28;20224;-71
2022/07/25 06:33:12;;;;;;;7.40;6.90;;;24.50;74.20;;;;;;5006916;28;20212;-71
2022/07/25 06:35:38;;;;;;;7.28;6.68;;;24.50;74.10;;;;;;5006839;28;20251;-70
2022/07/25 06:38:04;;;;;;;7.60;7.00;;;24.50;74.20;;;;;;4990852;28;20177;-70
2022/07/25 06:40:30;;;;;;;7.68;7.07;;;24.50;74.10;;;;;;4990052;28;20189;-70
2022/07/25 06:42:56;;;;;;;7.72;7.13;;;24.50;74.20;;;;;;4990509;28;20716;-70
2022/07/25 06:45:22;;;;;;;7.93;7.32;;;24.50;74.10;;;;;;4974783;28;20192;-70
2022/07/25 06:47:48;;;;;;;8.10;7.05;;;24.50;74.20;;;;;;4997389;28;20181;-71
2022/07/25 06:50:19;;;;;;;7.57;6.97;;;24.50;74.20;;;;;;4996780;28;20189;-70
2022/07/25 06:52:46;;;;;;;7.85;7.15;;;24.50;74.20;;;;;;4986255;28;20643;-70
2022/07/25 06:55:14;;;;;;;8.05;7.35;;;24.50;74.20;;;;;;4987825;28;20182;-71
2022/07/25 06:57:41;;;;;;;7.60;7.00;;;24.50;74.20;;;;;;5017448;28;20177;-71
2022/07/25 07:00:11;;;;;;;7.43;6.80;;;24.50;74.30;;;;;;5012145;28;20188;-71
2022/07/25 07:03:00;;;;;;;7.65;7.05;;;24.60;74.50;;;;;;4990547;28;20189;-70
2022/07/25 07:05:33;;;;;;;7.82;7.22;;;24.50;74.50;;;;;;5007025;28;20186;-70
2022/07/25 07:08:02;;;;;;;7.78;7.07;;;24.50;74.40;;;;;;4997340;28;20186;-71
2022/07/25 07:10:28;;;;;;;8.07;7.38;;;24.50;74.60;;;;;;5015910;28;20182;-71
2022/07/25 07:13:10;;;;;;;8.07;7.38;;;24.60;74.70;;;;;;5004066;28;20216;-70
2022/07/25 07:15:37;;;;;;;7.10;6.60;;;24.50;74.70;;;;;;4990579;28;20213;-71
2022/07/25 07:18:05;;;;;;;7.75;7.15;;;24.60;75.00;;;;;;4990559;28;20200;-71
2022/07/25 07:20:31;;;;;;;8.20;7.47;;;24.50;74.80;;;;;;4989882;28;20182;-71
2022/07/25 07:22:57;;;;;;;7.53;6.93;;;24.50;74.80;;;;;;4990566;28;20196;-70
2022/07/25 07:25:23;;;;;;;7.95;7.35;;;24.50;74.90;;;;;;4990537;28;20200;-70
2022/07/25 07:27:50;;;;;;;8.73;8.13;;;24.60;75.30;;;;;;4990562;28;20418;-71
2022/07/25 07:30:16;;;;;;;7.43;6.82;;;24.60;75.20;;;;;;4989640;28;20189;-70
2022/07/25 07:32:42;;;;;;;8.18;7.55;;;24.50;75.20;;;;;;4990390;28;20268;-71
2022/07/25 07:35:11;;;;;;;7.88;7.20;;;24.50;75.10;;;;;;4990315;28;20186;-70
2022/07/25 07:37:37;;;;;;;8.45;7.80;;;24.60;75.30;;;;;;4990392;28;20186;-70
2022/07/25 07:40:04;;;;;;;8.27;7.57;;;24.60;75.30;;;;;;4990327;28;20712;-70
2022/07/25 07:42:42;;;;;;;7.63;7.03;;;24.50;75.40;;;;;;4991413;28;20221;-71
2022/07/25 07:45:21;;;;;;;8.63;7.93;;;24.60;75.70;;;;;;4990682;28;20190;-70
2022/07/25 07:47:50;;;;;;;8.90;8.20;;;24.60;75.80;;;;;;4990340;28;20193;-71
2022/07/25 07:50:20;;;;;;;8.82;8.13;;;24.60;75.80;;;;;;4989772;28;20204;-71
2022/07/25 07:52:47;;;;;;;8.13;7.45;;;24.60;76.00;;;;;;4989906;28;20225;-70
2022/07/25 07:57:58;;;;;;;8.95;8.25;;;24.60;75.90;;;;;;4990121;28;20273;-70
2022/07/25 08:00:26;;;;;;;7.85;7.25;;;24.60;75.90;;;;;;4989346;28;20181;-70
2022/07/25 08:02:54;;;;;;;8.55;7.85;;;24.70;75.80;;;;;;4990894;28;20193;-70
2022/07/25 08:05:33;;;;;;;8.68;7.97;;;24.60;75.60;;;;;;4992688;28;20200;-70
2022/07/25 08:08:00;;;;;;;7.93;7.30;;;24.70;75.40;;;;;;4991899;28;20672;-70
2022/07/25 08:10:30;;;;;;;8.38;7.60;;;24.70;75.30;;;;;;5008960;28;20192;-70
2022/07/25 08:12:58;;;;;;;8.20;7.60;;;24.70;75.20;;;;;;5009352;28;20213;-70
2022/07/25 08:15:24;;;;;;;7.60;7.00;;;24.70;75.30;;;;;;4992323;28;20200;-71
2022/07/25 08:17:51;;;;;;;7.78;7.18;;;24.70;75.50;;;;;;5008982;28;20192;-70
2022/07/25 08:20:19;;;;;;;8.35;7.72;;;24.70;75.30;;;;;;5008408;28;20185;-71
2022/07/25 08:22:47;;;;;;;8.73;8.02;;;24.70;75.30;;;;;;5009006;28;20196;-72
2022/07/25 08:25:19;;;;;;;7.63;7.10;;;24.80;75.70;;;;;;5008883;28;20255;-70
2022/07/25 08:27:45;;;;;;;8.32;7.55;;;24.70;75.60;;;;;;5008447;28;20193;-71
2022/07/25 08:30:12;;;;;;;7.72;7.13;;;24.70;75.70;;;;;;5008289;28;20196;-71
2022/07/25 08:32:58;;;;;;;7.90;7.15;;;24.80;75.70;;;;;;4992275;28;20684;-71
2022/07/25 08:35:26;;;;;;;7.65;7.03;;;24.80;75.50;;;;;;5008660;28;20247;-71
2022/07/25 08:37:53;;;;;;;8.13;7.53;;;24.80;75.30;;;;;;5008731;28;20181;-70
2022/07/25 08:40:23;;;;;;;7.65;6.95;;;24.80;75.30;;;;;;5008098;28;20185;-70
2022/07/25 08:42:50;;;;;;;7.45;6.93;;;24.80;75.10;;;;;;5008516;28;20188;-70
2022/07/25 08:45:20;;;;;;;7.60;7.00;;;24.80;75.00;;;;;;5008205;28;20185;-71
2022/07/25 08:47:49;;;;;;;7.43;6.82;;;24.80;75.10;;;;;;5008628;28;20189;-70
2022/07/25 08:50:19;;;;;;;8.32;7.72;;;24.80;75.10;;;;;;5008078;28;20185;-70
2022/07/25 08:52:47;;;;;;;7.45;6.85;;;24.90;75.30;;;;;;5008501;28;20225;-70
2022/07/25 08:55:18;;;;;;;7.55;6.95;;;24.90;75.20;;;;;;5007702;28;20185;-69
2022/07/25 08:57:47;;;;;;;7.82;7.13;;;24.90;75.40;;;;;;4975998;28;20188;-71
2022/07/25 09:00:21;;;;;;;7.70;7.10;;;24.90;75.20;;;;;;5007998;28;20239;-70
2022/07/25 09:02:57;;;;;;;7.95;7.35;;;24.90;75.30;;;;;;4991975;28;20187;-71
2022/07/25 09:05:24;;;;;;;7.78;7.18;;;24.90;75.40;;;;;;4975637;28;20220;-71
2022/07/25 09:07:51;;;;;;;8.20;7.50;;;24.90;75.40;;;;;;5008109;28;20304;-71
2022/07/25 09:10:23;;;;;;;8.38;7.55;;;24.90;75.50;;;;;;5007317;28;20199;-70
2022/07/25 09:12:55;;;;;;;7.93;7.13;;;24.90;75.70;;;;;;4992037;28;20263;-70
2022/07/25 09:15:30;;;;;;;8.10;7.40;;;24.80;75.70;;;;;;4976040;28;20185;-70
2022/07/25 09:18:04;;;;;;;7.90;7.20;;;24.90;75.80;;;;;;5008138;28;20177;-69
2022/07/25 09:20:45;;;;;;;7.53;6.97;;;24.80;75.80;;;;;;4991423;28;20187;-70
2022/07/25 09:23:38;;;;;;;7.88;7.28;;;24.80;75.70;;;;;;4992065;28;20193;-69
2022/07/25 09:26:08;;;;;;;8.63;7.93;;;24.90;76.00;;;;;;5008295;28;20212;-70
2022/07/25 09:28:52;;;;;;;7.80;6.82;;;24.80;76.50;;;;;;4976025;28;20191;-70
2022/07/25 09:31:18;;;;;;;7.47;6.78;;;24.80;76.10;;;;;;5007843;28;20185;-70
2022/07/25 09:33:50;;;;;;;8.13;7.40;;;24.80;76.10;;;;;;5007991;28;20203;-70
2022/07/25 09:36:17;;;;;;;8.27;7.50;;;24.80;76.10;;;;;;4975639;28;20208;-70
2022/07/25 09:39:00;;;;;;;8.27;7.50;;;24.80;76.10;;;;;;5008371;28;20177;-70
2022/07/25 09:41:35;;;;;;;7.80;7.03;;;24.90;76.40;;;;;;5008027;28;20195;-71
2022/07/25 09:44:01;;;;;;;7.82;7.13;;;24.90;76.30;;;;;;4975617;28;20198;-71
2022/07/25 09:46:31;;;;;;;7.95;7.30;;;24.90;76.50;;;;;;5008062;28;20205;-70
2022/07/25 09:48:59;;;;;;;7.72;6.97;;;24.80;76.40;;;;;;5008121;28;20192;-70
2022/07/25 09:51:27;;;;;;;9.60;7.63;;;24.90;76.50;;;;;;5002780;28;20269;-70
2022/07/25 09:53:53;;;;;;;8.45;7.68;;;24.80;76.40;;;;;;5002666;28;20276;-70
2022/07/25 09:56:19;;;;;;;7.72;7.13;;;24.90;76.60;;;;;;5021540;28;20320;-70
2022/07/25 09:58:45;;;;;;;8.15;7.55;;;24.80;76.40;;;;;;4991799;28;20188;-70
2022/07/25 10:01:26;;;;;;;8.85;8.05;;;24.80;76.70;;;;;;4991417;28;20188;-70
2022/07/25 10:04:12;;;;;;;8.15;7.55;;;24.80;76.60;;;;;;5024603;28;20269;-71
2022/07/25 10:07:08;;;;;;;7.88;7.22;;;24.90;76.60;;;;;;4991311;28;20204;-70
2022/07/25 10:09:46;;;;;;;8.18;7.38;;;24.90;76.50;;;;;;4991532;28;20185;-70
2022/07/25 10:12:17;;;;;;;7.53;6.90;;;24.90;76.40;;;;;;4991537;28;20213;-71
2022/07/25 10:15:03;;;;;;;7.63;6.97;;;24.90;76.50;;;;;;5024355;28;20185;-70
2022/07/25 10:17:29;;;;;;;8.02;7.22;;;24.90;76.40;;;;;;5008288;28;20209;-71
2022/07/25 10:19:55;;;;;;;7.65;7.05;;;24.90;76.20;;;;;;5018641;28;20181;-70
2022/07/25 10:22:21;;;;;;;7.85;7.15;;;24.90;76.20;;;;;;4972243;28;20193;-70
2022/07/25 10:24:47;;;;;;;8.23;7.50;;;24.90;76.10;;;;;;4972386;28;20190;-70
2022/07/25 10:27:22;;;;;;;7.95;7.35;;;24.90;76.00;;;;;;4972069;28;20201;-71
2022/07/25 10:29:54;;;;;;;8.60;7.90;;;24.90;76.20;;;;;;4986172;28;20190;-70
2022/07/25 10:32:34;;;;;;;8.27;7.55;;;24.90;76.10;;;;;;4992016;28;20217;-70
2022/07/25 10:34:59;;;;;;;7.40;6.80;;;24.90;76.00;;;;;;4992268;28;20247;-70
2022/07/25 10:37:31;;;;;;;7.88;7.22;;;24.90;76.10;;;;;;4991884;28;20241;-70
2022/07/25 10:39:57;;;;;;;7.65;6.95;;;24.90;76.00;;;;;;4991662;28;20174;-70
2022/07/25 10:42:25;;;;;;;7.53;6.82;;;24.90;76.00;;;;;;4992238;28;20190;-71
2022/07/25 10:44:57;;;;;;;7.07;6.50;;;25.00;76.00;;;;;;5006514;28;20204;-70
2022/07/25 10:47:26;;;;;;;7.80;7.07;;;24.90;75.90;;;;;;5020180;28;20302;-71
2022/07/25 10:49:58;;;;;;;7.32;6.72;;;24.90;76.00;;;;;;5026991;28;20649;-70
2022/07/25 10:52:28;;;;;;;7.47;6.82;;;24.90;75.90;;;;;;5027588;28;20295;-71
2022/07/25 10:55:00;;;;;;;7.10;6.50;;;24.90;75.90;;;;;;5024411;28;20641;-71
2022/07/25 10:57:27;;;;;;;7.43;6.75;;;25.00;76.10;;;;;;5010889;28;20213;-71
2022/07/25 11:00:02;;;;;;;7.22;6.60;;;24.90;75.90;;;;;;4994119;28;20177;-71
2022/07/25 11:02:29;;;;;;;6.53;6.03;;;24.90;75.80;;;;;;5011090;28;20211;-70
2022/07/25 11:05:01;;;;;;;7.05;6.45;;;25.00;75.70;;;;;;4994508;28;20239;-71
2022/07/25 11:07:34;;;;;;;7.38;6.68;;;24.90;75.50;;;;;;5010610;28;20212;-70
2022/07/25 11:10:04;;;;;;;7.03;6.53;;;25.00;75.80;;;;;;4994065;28;20192;-70
2022/07/25 11:12:31;;;;;;;6.60;6.10;;;24.90;75.70;;;;;;5007689;28;20209;-71
2022/07/25 11:15:05;;;;;;;7.50;6.80;;;25.00;75.70;;;;;;5003134;28;20181;-71
2022/07/25 11:17:33;;;;;;;7.05;6.47;;;25.00;75.50;;;;;;5021326;28;20204;-71
2022/07/25 11:20:10;;;;;;;7.28;6.70;;;25.00;75.50;;;;;;4990826;28;20186;-70
2022/07/25 11:22:36;;;;;;;7.35;6.75;;;25.00;75.50;;;;;;4990752;28;20180;-71
2022/07/25 11:25:13;;;;;;;6.95;6.43;;;25.00;75.30;;;;;;4990655;28;20197;-71
2022/07/25 11:27:39;;;;;;;7.03;6.47;;;25.00;75.60;;;;;;4991273;28;20567;-70
2022/07/25 11:30:18;;;;;;;6.93;6.43;;;25.00;75.60;;;;;;4990662;28;20200;-71
2022/07/25 11:32:56;;;;;;;6.90;6.32;;;24.90;75.50;;;;;;4990874;28;20205;-71
2022/07/25 11:35:29;;;;;;;7.45;6.72;;;25.00;75.40;;;;;;5002683;28;20193;-70
2022/07/25 11:37:58;;;;;;;7.22;6.60;;;25.00;75.50;;;;;;5027015;28;20191;-70
2022/07/25 11:40:24;;;;;;;6.97;6.43;;;25.00;75.40;;;;;;5014184;28;20199;-71
2022/07/25 11:42:55;;;;;;;7.05;6.45;;;25.00;75.40;;;;;;4994050;28;20218;-71
2022/07/25 11:45:27;;;;;;;7.22;6.63;;;25.00;75.30;;;;;;4977767;28;20185;-70
2022/07/25 11:48:12;;;;;;;7.00;6.40;;;25.00;75.30;;;;;;4993972;28;20193;-71
2022/07/25 11:50:43;;;;;;;6.57;6.07;;;25.00;75.20;;;;;;4992816;28;20231;-71
2022/07/25 11:53:17;;;;;;;7.38;6.78;;;25.00;75.10;;;;;;4990442;28;20304;-70
2022/07/25 11:55:43;;;;;;;7.38;6.70;;;25.00;75.10;;;;;;4973914;28;20224;-70
2022/07/25 11:58:12;;;;;;;7.55;6.95;;;25.00;75.10;;;;;;4974386;28;20193;-71
2022/07/25 12:00:47;;;;;;;7.50;6.90;;;25.00;75.10;;;;;;4993666;28;20225;-71
2022/07/25 12:03:19;;;;;;;8.00;7.30;;;25.00;75.10;;;;;;4977501;28;20639;-71
2022/07/25 12:05:45;;;;;;;7.00;6.40;;;25.00;75.10;;;;;;4976890;28;20209;-71
2022/07/25 12:08:14;;;;;;;7.47;6.88;;;25.00;75.10;;;;;;4993521;28;20192;-70
2022/07/25 12:10:42;;;;;;;7.40;6.80;;;25.00;75.20;;;;;;4976471;28;20232;-71
2022/07/25 12:13:09;;;;;;;7.30;6.70;;;25.00;75.20;;;;;;4977179;28;20316;-71
2022/07/25 12:15:39;;;;;;;7.30;6.53;;;25.00;75.30;;;;;;4993413;28;20219;-71
2022/07/25 12:18:08;;;;;;;7.55;6.95;;;25.10;75.30;;;;;;4977236;28;20180;-71
2022/07/25 12:20:41;;;;;;;7.13;6.53;;;25.10;75.30;;;;;;4992024;28;20216;-72
2022/07/25 12:23:11;;;;;;;6.97;6.38;;;25.10;75.30;;;;;;5009646;28;20260;-71
2022/07/25 12:25:39;;;;;;;7.40;6.80;;;25.10;75.40;;;;;;5008862;28;20303;-70
2022/07/25 12:28:06;;;;;;;7.20;6.60;;;25.10;75.30;;;;;;4991222;28;20189;-71
2022/07/25 12:30:33;;;;;;;7.90;7.30;;;25.10;75.40;;;;;;5008969;28;20275;-71
2022/07/25 12:33:00;;;;;;;6.88;6.28;;;25.10;75.40;;;;;;5009401;28;20212;-71
2022/07/25 12:35:26;;;;;;;7.72;7.03;;;25.10;75.30;;;;;;4992906;28;20283;-71
2022/07/25 12:37:53;;;;;;;6.97;6.38;;;25.10;75.40;;;;;;4992894;28;20185;-70
2022/07/25 12:40:19;;;;;;;7.60;7.00;;;25.10;75.40;;;;;;4992411;28;20209;-71
2022/07/25 12:42:48;;;;;;;7.80;7.20;;;25.10;75.30;;;;;;5009168;28;20188;-71
2022/07/25 12:45:16;;;;;;;7.63;7.03;;;25.10;75.30;;;;;;5008264;28;20283;-71
2022/07/25 12:47:46;;;;;;;7.85;7.25;;;25.10;75.20;;;;;;4976800;28;20177;-70
2022/07/25 12:50:14;;;;;;;7.80;7.10;;;25.10;74.90;;;;;;5008656;28;20188;-71
2022/07/25 12:52:42;;;;;;;7.45;6.85;;;25.10;75.00;;;;;;5008691;28;20266;-71
2022/07/25 12:55:12;;;;;;;7.45;6.85;;;25.10;74.80;;;;;;5009505;28;20185;-72